This is the latest recevied weather packets stored in our database for station/object KC5TXI. If no packets are shown the sender has not sent any weather packets the latest 10 day(s).
| Time | Temp. | Humidity | Pressure | Rain* | Wind** | Luminosity | Snow |
|---|---|---|---|---|---|---|---|
| 1777726578 | 10.56° C | 99% | 1022.9 hPa | 0 mm | - | 34 W/m² | - |
| 1777725368 | 9.44° C | 99% | 1022.7 hPa | 0 mm | - | 27 W/m² | - |
| 1777725064 | 8.89° C | 99% | 1022.8 hPa | 0 mm | - | 25 W/m² | - |
| 1777724761 | 8.33° C | 99% | 1022.7 hPa | 0 mm | - | 23 W/m² | - |
| 1777724458 | 8.33° C | 99% | 1022.8 hPa | 0 mm | - | 21 W/m² | - |
| 1777724155 | 8.33° C | 99% | 1022.8 hPa | 0 mm | - | 18 W/m² | - |
| 1777723852 | 8.33° C | 99% | 1022.4 hPa | 0 mm | - | 16 W/m² | - |
| 1777723548 | 8.33° C | 99% | 1022.2 hPa | 0 mm | - | 12 W/m² | - |
| 1777723246 | 7.78° C | 99% | 1022.3 hPa | 0 mm | - | 10 W/m² | - |
| 1777722033 | 7.78° C | 99% | 1021.7 hPa | 0 mm | - | 1 W/m² | - |
| 1777721731 | 7.78° C | 99% | 1021.6 hPa | 0 mm | - | 0 W/m² | - |
| 1777721430 | 7.78° C | 99% | 1021.5 hPa | 0 mm | - | 0 W/m² | - |
| 1777721127 | 7.78° C | 99% | 1021.5 hPa | 0 mm | - | 0 W/m² | - |
| 1777720824 | 7.78° C | 99% | 1021.5 hPa | 0 mm | - | 0 W/m² | - |
| 1777720521 | 7.78° C | 99% | 1021.2 hPa | 0 mm | - | 0 W/m² | - |
| 1777720219 | 7.78° C | 99% | 1021.2 hPa | 0 mm | - | 0 W/m² | - |
| 1777719916 | 7.78° C | 99% | 1021.3 hPa | 0 mm | - | 0 W/m² | - |
| 1777719614 | 8.33° C | 99% | 1021.1 hPa | 0 mm | - | 0 W/m² | - |
| 1777719311 | 8.33° C | 99% | 1020.9 hPa | 0 mm | - | 0 W/m² | - |
| 1777719008 | 8.33° C | 99% | 1021.1 hPa | 0 mm | - | 0 W/m² | - |
| 1777718705 | 8.33° C | 99% | 1021.2 hPa | 0 mm | - | 0 W/m² | - |
| 1777718403 | 8.33° C | 99% | 1021 hPa | 0 mm | - | 0 W/m² | - |
| 1777718100 | 8.33° C | 99% | 1021 hPa | 0 mm | - | 0 W/m² | - |
| 1777717797 | 8.33° C | 99% | 1020.9 hPa | 0 mm | - | 0 W/m² | - |
| 1777717494 | 8.33° C | 99% | 1021.1 hPa | 0 mm | - | 0 W/m² | - |
* Rain latest hour (hover to see other rain measurements)
** Current wind speed in m/s (hover to see current wind gust speed)